Shinsei Maru No.3 — JK5120 — position and weather

sailwx.info

Track history (hours):
 
Tides and Currents Weather Stations Pressure Air Temp Water Temp Dewpoint Dewpoint Depression Visibility Wind Speed Wind Dir Waves Ship Positions

Shinsei Maru No.3

Last reported at 2018-Feb-22 22:30 UTC. Time now 2018-Feb-22 22:57 UTC.
Position N 34°35' E 135°04'.

Length 67 m.

Type: Tanker. MMSI: 431401672.

Date/timePositionNaut miles runAvg speedWind from/ knotsBaromVisibWave heightAir tempDewpointWater temp
2018-Feb-22 22:30N 34°35' E 135°04'713.0
2018-Feb-22 22:00N 34°36' E 134°56'713.5
2018-Feb-22 21:30N 34°33' E 134°49'612.7
2018-Feb-22 21:00N 34°31' E 134°42'612.6
2018-Feb-22 20:31N 34°28' E 134°35'9611.6
2018-Feb-22 12:16N 34°03' E 132°42'312.2
2018-Feb-22 12:00N 34°02' E 132°39'5611.4
2018-Feb-22 07:02N 33°49' E 131°33'112.1
2018-Feb-22 06:59N 33°50' E 131°32'713.0
2018-Feb-22 06:29N 33°51' E 131°24'612.9
2018-Feb-22 06:00N 33°52' E 131°17'612.6
2018-Feb-22 05:30N 33°54' E 131°09'612.2
2018-Feb-22 05:00N 33°57' E 131°03'5 9.4
2018-Feb-22 04:30N 33°58' E 130°58'5 9.0
2018-Feb-22 03:59N 33°54' E 130°54'4 8.7
2018-Feb-22 03:30N 33°55' E 130°49'4 7.5
2018-Feb-22 02:57N 33°52' E 130°45'0 0.0
2018-Feb-22 02:30N 33°52' E 130°45'0 0.0
2018-Feb-22 02:00N 33°52' E 130°45'0 0.0
2018-Feb-22 01:30N 33°52' E 130°45'0 0.0
2018-Feb-22 01:00N 33°52' E 130°45'0 0.0
2018-Feb-22 00:30N 33°52' E 130°45'0 0.0
2018-Feb-22 00:00N 33°52' E 130°45'0 0.0
2018-Feb-21 23:30N 33°52' E 130°45'2 3.5
2018-Feb-21 23:01N 33°53' E 130°47'4 8.8
2018-Feb-21 22:30N 33°56' E 130°51'0 0.1
2018-Feb-21 22:00N 33°56' E 130°51'0 0.1
2018-Feb-21 21:30N 33°56' E 130°51'0 0.0
2018-Feb-21 21:00N 33°56' E 130°51'0 0.1
2018-Feb-21 20:30N 33°56' E 130°51'0 0.0
2018-Feb-21 20:00N 33°56' E 130°51'0 0.0
2018-Feb-21 19:30N 33°56' E 130°51'0 0.0
2018-Feb-21 19:00N 33°56' E 130°51'0 0.0
2018-Feb-21 18:30N 33°56' E 130°51'0 0.0
2018-Feb-21 18:00N 33°56' E 130°51'0 0.0
2018-Feb-21 17:30N 33°56' E 130°51'0 0.0
2018-Feb-21 17:00N 33°56' E 130°51'0 0.0
2018-Feb-21 16:30N 33°56' E 130°51'0 0.0
2018-Feb-21 16:00N 33°56' E 130°51'0 0.0
2018-Feb-21 15:30N 33°56' E 130°51'0 0.0
2018-Feb-21 15:00N 33°56' E 130°51'0 0.0
2018-Feb-21 14:30N 33°56' E 130°51'0 0.0
2018-Feb-21 14:00N 33°56' E 130°51'0 0.0
2018-Feb-21 13:30N 33°56' E 130°51'0 0.0
2018-Feb-21 13:00N 33°56' E 130°51'0 0.0
2018-Feb-21 12:30N 33°56' E 130°51'0 0.0
2018-Feb-21 12:00N 33°56' E 130°51'0 0.0
2018-Feb-21 11:30N 33°56' E 130°51'3 5.2
2018-Feb-21 11:00N 33°55' E 130°54'3 6.7
2018-Feb-21 10:30N 33°57' E 130°57'4 7.2
2018-Feb-21 10:00N 33°59' E 131°01'510.9
2018-Feb-21 09:30N 33°56' E 131°07'610.9
2018-Feb-21 09:00N 33°53' E 131°12'510.5
2018-Feb-21 08:30N 33°53' E 131°19'610.8
2018-Feb-21 08:00N 33°52' E 131°25'510.7
2018-Feb-21 07:30N 33°50' E 131°31'610.8
2018-Feb-21 06:59N 33°49' E 131°38'50 9.8
2018-Feb-21 01:52N 34°01' E 132°37'410.6
2018-Feb-21 01:29N 34°03' E 132°41'9210.0
2018-Feb-20 16:16N 34°19' E 134°31'311.5
2018-Feb-20 15:58N 34°17' E 134°35'1211.2
2018-Feb-20 14:55N 34°09' E 134°45'511.5
2018-Feb-20 14:29N 34°05' E 134°49'811.8
2018-Feb-20 13:50N 33°60' E 134°55'205 9.8
2018-Feb-19 16:54N 34°38' E 138°59'47 1.2
2018-Feb-18 01:53N 35°06' E 139°45'512.6
2018-Feb-18 01:29N 35°11' E 139°46'613.0
2018-Feb-18 00:59N 35°18' E 139°44'712.5
2018-Feb-18 00:28N 35°24' E 139°43'510.1
2018-Feb-17 23:58N 35°29' E 139°42'0 0.1
2018-Feb-17 23:28N 35°29' E 139°42'0 0.0
2018-Feb-17 22:52N 35°29' E 139°42'0 0.0
2018-Feb-17 22:25N 35°29' E 139°42'0 0.0
2018-Feb-17 21:58N 35°29' E 139°42'0 0.0
2018-Feb-17 21:25N 35°29' E 139°42'0 0.0
2018-Feb-17 20:58N 35°29' E 139°42'0 0.0
2018-Feb-17 20:28N 35°29' E 139°42'0 0.0
2018-Feb-17 19:58N 35°29' E 139°42'0 0.0
2018-Feb-17 19:28N 35°29' E 139°42'0 0.0
2018-Feb-17 18:58N 35°29' E 139°42'0 0.0
2018-Feb-17 18:25N 35°29' E 139°42'0 0.0
2018-Feb-17 17:58N 35°29' E 139°42'0 0.0
2018-Feb-17 17:28N 35°29' E 139°42'0 0.0
2018-Feb-17 16:52N 35°29' E 139°42'0 0.0
2018-Feb-17 16:28N 35°29' E 139°42'0 0.0
2018-Feb-17 15:58N 35°29' E 139°42'0 0.0
2018-Feb-17 15:25N 35°29' E 139°42'0 0.0
2018-Feb-17 14:58N 35°29' E 139°42'0 0.0
2018-Feb-17 14:25N 35°29' E 139°42'0 0.0
2018-Feb-17 13:58N 35°29' E 139°42'0 0.0
2018-Feb-17 13:28N 35°29' E 139°42'0 0.0
2018-Feb-17 12:58N 35°29' E 139°42'0 0.0
2018-Feb-17 12:28N 35°29' E 139°42'0 0.0
2018-Feb-17 11:58N 35°29' E 139°42'0 0.0
2018-Feb-17 11:25N 35°29' E 139°42'0 0.0
2018-Feb-17 10:58N 35°29' E 139°42'0 0.0
2018-Feb-17 10:25N 35°29' E 139°42'0 0.0
2018-Feb-17 09:52N 35°29' E 139°42'0 0.0
2018-Feb-17 09:28N 35°29' E 139°42'0 0.0
2018-Feb-17 08:58N 35°29' E 139°42'0 0.0
2018-Feb-17 08:28N 35°29' E 139°42'0 0.0
2018-Feb-17 07:58N 35°29' E 139°42'0 0.0
2018-Feb-17 07:28N 35°29' E 139°42'0 0.1
2018-Feb-17 06:58N 35°29' E 139°42'2 3.8
2018-Feb-17 06:29N 35°27' E 139°43'5 7.7
2018-Feb-17 05:52N 35°29' E 139°48'0 0.2
2018-Feb-17 05:30N 35°29' E 139°48'3 0.6
2018-Feb-16 23:27N 35°32' E 139°46'2 4.8
2018-Feb-16 22:58N 35°30' E 139°48'2 1.0
2018-Feb-16 21:14N 35°29' E 139°49'0 0.0
2018-Feb-16 20:47N 35°29' E 139°49'0 0.0
2018-Feb-16 20:26N 35°29' E 139°49'0 0.0
2018-Feb-16 19:56N 35°29' E 139°49'0 0.0
2018-Feb-16 19:26N 35°29' E 139°49'0 0.1
2018-Feb-16 18:44N 35°29' E 139°49'0 0.0
2018-Feb-16 18:29N 35°29' E 139°49'0 0.0
2018-Feb-16 15:44N 35°29' E 139°49'0 0.1
2018-Feb-16 15:17N 35°29' E 139°49'1 3.4
2018-Feb-16 14:58N 35°28' E 139°48'511.5
2018-Feb-16 14:30N 35°23' E 139°46'510.7
2018-Feb-16 14:00N 35°18' E 139°45'510.3
2018-Feb-16 13:30N 35°13' E 139°47'611.4
2018-Feb-16 12:59N 35°07' E 139°45'24410.3
2018-Feb-15 13:10N 33°55' E 135°02'412.6
2018-Feb-15 12:53N 33°58' E 135°02'512.3
2018-Feb-15 12:29N 34°03' E 135°02'712.2
2018-Feb-15 11:55N 34°10' E 135°03'512.0
2018-Feb-15 11:30N 34°15' E 135°03'611.7
2018-Feb-15 10:58N 34°21' E 135°06'611.9
2018-Feb-15 10:30N 34°25' E 135°10'611.7
2018-Feb-15 09:59N 34°29' E 135°16'611.8
2018-Feb-15 09:30N 34°32' E 135°21'4 7.4
2018-Feb-15 09:01N 34°33' E 135°26'0 0.0
2018-Feb-15 08:28N 34°33' E 135°26'0 0.0
2018-Feb-15 08:01N 34°33' E 135°26'0 0.0
2018-Feb-15 07:31N 34°33' E 135°26'0 0.0
2018-Feb-15 07:01N 34°33' E 135°26'0 0.0
2018-Feb-15 06:25N 34°33' E 135°26'0 0.0
2018-Feb-15 06:01N 34°33' E 135°26'0 0.0
2018-Feb-15 05:31N 34°33' E 135°26'0 0.0
2018-Feb-15 04:58N 34°33' E 135°26'0 0.0
2018-Feb-15 04:31N 34°33' E 135°26'0 0.0
2018-Feb-15 04:01N 34°33' E 135°26'0 0.5
2018-Feb-15 03:28N 34°33' E 135°26'0 0.2
2018-Feb-15 02:59N 34°33' E 135°25'0 0.0
2018-Feb-15 02:28N 34°33' E 135°25'0 0.1
2018-Feb-15 01:58N 34°33' E 135°25'0 0.0
2018-Feb-15 01:28N 34°33' E 135°25'0 0.0
2018-Feb-15 00:55N 34°33' E 135°25'0 0.0
2018-Feb-15 00:29N 34°33' E 135°25'0 0.0
2018-Feb-14 23:58N 34°33' E 135°25'0 0.0
2018-Feb-14 23:28N 34°33' E 135°25'0 0.0
2018-Feb-14 22:58N 34°33' E 135°25'0 0.0
2018-Feb-14 22:28N 34°33' E 135°25'0 0.1
2018-Feb-14 21:58N 34°33' E 135°25'0 0.0
2018-Feb-14 21:28N 34°33' E 135°25'1 2.5
2018-Feb-14 21:00N 34°33' E 135°24'612.3
2018-Feb-14 20:30N 34°34' E 135°17'612.5
2018-Feb-14 20:00N 34°34' E 135°09'713.0
2018-Feb-14 19:30N 34°37' E 135°01'713.0
2018-Feb-14 19:00N 34°35' E 134°54'713.5
2018-Feb-14 18:30N 34°32' E 134°46'712.8
2018-Feb-14 18:00N 34°30' E 134°39'612.4
2018-Feb-14 17:30N 34°27' E 134°32'9412.6
2018-Feb-14 10:02N 34°03' E 132°42'013.4
2018-Feb-14 10:00N 34°03' E 132°41'4411.4
2018-Feb-14 06:06N 33°56' E 131°49'112.2
2018-Feb-14 06:00N 33°56' E 131°48'711.3
2018-Feb-14 05:23N 34°02' E 131°44'1 0.5
2018-Feb-14 02:48N 34°03' E 131°45'2 5.4
2018-Feb-14 02:28N 34°02' E 131°43'1 0.2
2018-Feb-13 18:57N 34°02' E 131°41'0 0.0
2018-Feb-13 17:45N 34°02' E 131°41'0 0.0
2018-Feb-13 17:21N 34°02' E 131°41'0 0.0
2018-Feb-13 14:39N 34°02' E 131°41'0 0.0
2018-Feb-13 13:51N 34°02' E 131°41'0 0.0
2018-Feb-13 13:27N 34°02' E 131°41'0 0.0
2018-Feb-13 08:53N 34°02' E 131°41'45 9.4
2018-Feb-13 04:02N 34°00' E 132°36'011.4
2018-Feb-13 04:00N 34°01' E 132°37'  
Track history (hours):
 
Tides and Currents Weather Stations Pressure Air Temp Water Temp Dewpoint Dewpoint Depression Visibility Wind Speed Wind Dir Waves Ship Positions

Shinsei Maru No.3

Last reported at 2018-Feb-22 22:30 UTC. Time now 2018-Feb-22 22:57 UTC.
Position N 34°35' E 135°04'.

Length 67 m.

Type: Tanker. MMSI: 431401672.

Date/timePositionNaut miles runAvg speedWind from/ knotsBaromVisibWave heightAir tempDewpointWater temp
2018-Feb-22 22:30N 34°35' E 135°04'713.0
2018-Feb-22 22:00N 34°36' E 134°56'713.5
2018-Feb-22 21:30N 34°33' E 134°49'612.7
2018-Feb-22 21:00N 34°31' E 134°42'612.6
2018-Feb-22 20:31N 34°28' E 134°35'9611.6
2018-Feb-22 12:16N 34°03' E 132°42'312.2
2018-Feb-22 12:00N 34°02' E 132°39'5611.4
2018-Feb-22 07:02N 33°49' E 131°33'112.1
2018-Feb-22 06:59N 33°50' E 131°32'713.0
2018-Feb-22 06:29N 33°51' E 131°24'612.9
2018-Feb-22 06:00N 33°52' E 131°17'612.6
2018-Feb-22 05:30N 33°54' E 131°09'612.2
2018-Feb-22 05:00N 33°57' E 131°03'5 9.4
2018-Feb-22 04:30N 33°58' E 130°58'5 9.0
2018-Feb-22 03:59N 33°54' E 130°54'4 8.7
2018-Feb-22 03:30N 33°55' E 130°49'4 7.5
2018-Feb-22 02:57N 33°52' E 130°45'0 0.0
2018-Feb-22 02:30N 33°52' E 130°45'0 0.0
2018-Feb-22 02:00N 33°52' E 130°45'0 0.0
2018-Feb-22 01:30N 33°52' E 130°45'0 0.0
2018-Feb-22 01:00N 33°52' E 130°45'0 0.0
2018-Feb-22 00:30N 33°52' E 130°45'0 0.0
2018-Feb-22 00:00N 33°52' E 130°45'0 0.0
2018-Feb-21 23:30N 33°52' E 130°45'2 3.5
2018-Feb-21 23:01N 33°53' E 130°47'4 8.8
2018-Feb-21 22:30N 33°56' E 130°51'0 0.1
2018-Feb-21 22:00N 33°56' E 130°51'0 0.1
2018-Feb-21 21:30N 33°56' E 130°51'0 0.0
2018-Feb-21 21:00N 33°56' E 130°51'0 0.1
2018-Feb-21 20:30N 33°56' E 130°51'0 0.0
2018-Feb-21 20:00N 33°56' E 130°51'0 0.0
2018-Feb-21 19:30N 33°56' E 130°51'0 0.0
2018-Feb-21 19:00N 33°56' E 130°51'0 0.0
2018-Feb-21 18:30N 33°56' E 130°51'0 0.0
2018-Feb-21 18:00N 33°56' E 130°51'0 0.0
2018-Feb-21 17:30N 33°56' E 130°51'0 0.0
2018-Feb-21 17:00N 33°56' E 130°51'0 0.0
2018-Feb-21 16:30N 33°56' E 130°51'0 0.0
2018-Feb-21 16:00N 33°56' E 130°51'0 0.0
2018-Feb-21 15:30N 33°56' E 130°51'0 0.0
2018-Feb-21 15:00N 33°56' E 130°51'0 0.0
2018-Feb-21 14:30N 33°56' E 130°51'0 0.0
2018-Feb-21 14:00N 33°56' E 130°51'0 0.0
2018-Feb-21 13:30N 33°56' E 130°51'0 0.0
2018-Feb-21 13:00N 33°56' E 130°51'0 0.0
2018-Feb-21 12:30N 33°56' E 130°51'0 0.0
2018-Feb-21 12:00N 33°56' E 130°51'0 0.0
2018-Feb-21 11:30N 33°56' E 130°51'3 5.2
2018-Feb-21 11:00N 33°55' E 130°54'3 6.7
2018-Feb-21 10:30N 33°57' E 130°57'4 7.2
2018-Feb-21 10:00N 33°59' E 131°01'510.9
2018-Feb-21 09:30N 33°56' E 131°07'610.9
2018-Feb-21 09:00N 33°53' E 131°12'510.5
2018-Feb-21 08:30N 33°53' E 131°19'610.8
2018-Feb-21 08:00N 33°52' E 131°25'510.7
2018-Feb-21 07:30N 33°50' E 131°31'610.8
2018-Feb-21 06:59N 33°49' E 131°38'50 9.8
2018-Feb-21 01:52N 34°01' E 132°37'410.6
2018-Feb-21 01:29N 34°03' E 132°41'9210.0
2018-Feb-20 16:16N 34°19' E 134°31'311.5
2018-Feb-20 15:58N 34°17' E 134°35'1211.2
2018-Feb-20 14:55N 34°09' E 134°45'511.5
2018-Feb-20 14:29N 34°05' E 134°49'811.8
2018-Feb-20 13:50N 33°60' E 134°55'205 9.8
2018-Feb-19 16:54N 34°38' E 138°59'47 1.2
2018-Feb-18 01:53N 35°06' E 139°45'512.6
2018-Feb-18 01:29N 35°11' E 139°46'613.0
2018-Feb-18 00:59N 35°18' E 139°44'712.5
2018-Feb-18 00:28N 35°24' E 139°43'510.1
2018-Feb-17 23:58N 35°29' E 139°42'0 0.1
2018-Feb-17 23:28N 35°29' E 139°42'0 0.0
2018-Feb-17 22:52N 35°29' E 139°42'0 0.0
2018-Feb-17 22:25N 35°29' E 139°42'0 0.0
2018-Feb-17 21:58N 35°29' E 139°42'0 0.0
2018-Feb-17 21:25N 35°29' E 139°42'0 0.0
2018-Feb-17 20:58N 35°29' E 139°42'0 0.0
2018-Feb-17 20:28N 35°29' E 139°42'0 0.0
2018-Feb-17 19:58N 35°29' E 139°42'0 0.0
2018-Feb-17 19:28N 35°29' E 139°42'0 0.0
2018-Feb-17 18:58N 35°29' E 139°42'0 0.0
2018-Feb-17 18:25N 35°29' E 139°42'0 0.0
2018-Feb-17 17:58N 35°29' E 139°42'0 0.0
2018-Feb-17 17:28N 35°29' E 139°42'0 0.0
2018-Feb-17 16:52N 35°29' E 139°42'0 0.0
2018-Feb-17 16:28N 35°29' E 139°42'0 0.0
2018-Feb-17 15:58N 35°29' E 139°42'0 0.0
2018-Feb-17 15:25N 35°29' E 139°42'0 0.0
2018-Feb-17 14:58N 35°29' E 139°42'0 0.0
2018-Feb-17 14:25N 35°29' E 139°42'0 0.0
2018-Feb-17 13:58N 35°29' E 139°42'0 0.0
2018-Feb-17 13:28N 35°29' E 139°42'0 0.0
2018-Feb-17 12:58N 35°29' E 139°42'0 0.0
2018-Feb-17 12:28N 35°29' E 139°42'0 0.0
2018-Feb-17 11:58N 35°29' E 139°42'0 0.0
2018-Feb-17 11:25N 35°29' E 139°42'0 0.0
2018-Feb-17 10:58N 35°29' E 139°42'0 0.0
2018-Feb-17 10:25N 35°29' E 139°42'0 0.0
2018-Feb-17 09:52N 35°29' E 139°42'0 0.0
2018-Feb-17 09:28N 35°29' E 139°42'0 0.0
2018-Feb-17 08:58N 35°29' E 139°42'0 0.0
2018-Feb-17 08:28N 35°29' E 139°42'0 0.0
2018-Feb-17 07:58N 35°29' E 139°42'0 0.0
2018-Feb-17 07:28N 35°29' E 139°42'0 0.1
2018-Feb-17 06:58N 35°29' E 139°42'2 3.8
2018-Feb-17 06:29N 35°27' E 139°43'5 7.7
2018-Feb-17 05:52N 35°29' E 139°48'0 0.2
2018-Feb-17 05:30N 35°29' E 139°48'3 0.6
2018-Feb-16 23:27N 35°32' E 139°46'2 4.8
2018-Feb-16 22:58N 35°30' E 139°48'2 1.0
2018-Feb-16 21:14N 35°29' E 139°49'0 0.0
2018-Feb-16 20:47N 35°29' E 139°49'0 0.0
2018-Feb-16 20:26N 35°29' E 139°49'0 0.0
2018-Feb-16 19:56N 35°29' E 139°49'0 0.0
2018-Feb-16 19:26N 35°29' E 139°49'0 0.1
2018-Feb-16 18:44N 35°29' E 139°49'0 0.0
2018-Feb-16 18:29N 35°29' E 139°49'0 0.0
2018-Feb-16 15:44N 35°29' E 139°49'0 0.1
2018-Feb-16 15:17N 35°29' E 139°49'1 3.4
2018-Feb-16 14:58N 35°28' E 139°48'511.5
2018-Feb-16 14:30N 35°23' E 139°46'510.7
2018-Feb-16 14:00N 35°18' E 139°45'510.3
2018-Feb-16 13:30N 35°13' E 139°47'611.4
2018-Feb-16 12:59N 35°07' E 139°45'24410.3
2018-Feb-15 13:10N 33°55' E 135°02'412.6
2018-Feb-15 12:53N 33°58' E 135°02'512.3
2018-Feb-15 12:29N 34°03' E 135°02'712.2
2018-Feb-15 11:55N 34°10' E 135°03'512.0
2018-Feb-15 11:30N 34°15' E 135°03'611.7
2018-Feb-15 10:58N 34°21' E 135°06'611.9
2018-Feb-15 10:30N 34°25' E 135°10'611.7
2018-Feb-15 09:59N 34°29' E 135°16'611.8
2018-Feb-15 09:30N 34°32' E 135°21'4 7.4
2018-Feb-15 09:01N 34°33' E 135°26'0 0.0
2018-Feb-15 08:28N 34°33' E 135°26'0 0.0
2018-Feb-15 08:01N 34°33' E 135°26'0 0.0
2018-Feb-15 07:31N 34°33' E 135°26'0 0.0
2018-Feb-15 07:01N 34°33' E 135°26'0 0.0
2018-Feb-15 06:25N 34°33' E 135°26'0 0.0
2018-Feb-15 06:01N 34°33' E 135°26'0 0.0
2018-Feb-15 05:31N 34°33' E 135°26'0 0.0
2018-Feb-15 04:58N 34°33' E 135°26'0 0.0
2018-Feb-15 04:31N 34°33' E 135°26'0 0.0
2018-Feb-15 04:01N 34°33' E 135°26'0 0.5
2018-Feb-15 03:28N 34°33' E 135°26'0 0.2
2018-Feb-15 02:59N 34°33' E 135°25'0 0.0
2018-Feb-15 02:28N 34°33' E 135°25'0 0.1
2018-Feb-15 01:58N 34°33' E 135°25'0 0.0
2018-Feb-15 01:28N 34°33' E 135°25'0 0.0
2018-Feb-15 00:55N 34°33' E 135°25'0 0.0
2018-Feb-15 00:29N 34°33' E 135°25'0 0.0
2018-Feb-14 23:58N 34°33' E 135°25'0 0.0
2018-Feb-14 23:28N 34°33' E 135°25'0 0.0
2018-Feb-14 22:58N 34°33' E 135°25'0 0.0
2018-Feb-14 22:28N 34°33' E 135°25'0 0.1
2018-Feb-14 21:58N 34°33' E 135°25'0 0.0
2018-Feb-14 21:28N 34°33' E 135°25'1 2.5
2018-Feb-14 21:00N 34°33' E 135°24'612.3
2018-Feb-14 20:30N 34°34' E 135°17'612.5
2018-Feb-14 20:00N 34°34' E 135°09'713.0
2018-Feb-14 19:30N 34°37' E 135°01'713.0
2018-Feb-14 19:00N 34°35' E 134°54'713.5
2018-Feb-14 18:30N 34°32' E 134°46'712.8
2018-Feb-14 18:00N 34°30' E 134°39'612.4
2018-Feb-14 17:30N 34°27' E 134°32'9412.6
2018-Feb-14 10:02N 34°03' E 132°42'013.4
2018-Feb-14 10:00N 34°03' E 132°41'4411.4
2018-Feb-14 06:06N 33°56' E 131°49'112.2
2018-Feb-14 06:00N 33°56' E 131°48'711.3
2018-Feb-14 05:23N 34°02' E 131°44'1 0.5
2018-Feb-14 02:48N 34°03' E 131°45'2 5.4
2018-Feb-14 02:28N 34°02' E 131°43'1 0.2
2018-Feb-13 18:57N 34°02' E 131°41'0 0.0
2018-Feb-13 17:45N 34°02' E 131°41'0 0.0
2018-Feb-13 17:21N 34°02' E 131°41'0 0.0
2018-Feb-13 14:39N 34°02' E 131°41'0 0.0
2018-Feb-13 13:51N 34°02' E 131°41'0 0.0
2018-Feb-13 13:27N 34°02' E 131°41'0 0.0
2018-Feb-13 08:53N 34°02' E 131°41'45 9.4
2018-Feb-13 04:02N 34°00' E 132°36'011.4
2018-Feb-13 04:00N 34°01' E 132°37'  

Dump ship's entire track history